createdAt,value
2018-08-18T00:00:38.403Z,6.33
2018-08-18T00:05:21.947Z,6.13
2018-08-18T00:10:08.284Z,6.17
2018-08-18T00:14:51.814Z,5.67
2018-08-18T00:19:36.153Z,6.43
2018-08-18T00:24:19.704Z,6.13
2018-08-18T00:29:03.212Z,5.27
2018-08-18T00:33:46.776Z,5.83
2018-08-18T00:38:30.304Z,7.13
2018-08-18T00:43:13.977Z,6.33
2018-08-18T00:47:57.445Z,6.17
2018-08-18T00:52:41.117Z,6.43
2018-08-18T00:57:33.405Z,6.53
2018-08-18T01:02:16.795Z,6.33
2018-08-18T01:07:04.881Z,7.00
2018-08-18T01:11:48.627Z,6.80
2018-08-18T01:16:31.822Z,6.70
2018-08-18T01:21:15.165Z,6.47
2018-08-18T01:25:58.716Z,7.77
2018-08-18T01:30:42.205Z,7.07
2018-08-18T01:35:26.689Z,7.93
2018-08-18T01:40:10.047Z,7.07
2018-08-18T01:44:55.427Z,7.97
2018-08-18T01:49:38.899Z,7.43
2018-08-18T01:54:22.327Z,7.97
2018-08-18T01:59:05.740Z,8.10
2018-08-18T02:03:49.383Z,8.47
2018-08-18T02:08:40.375Z,9.07
2018-08-18T02:13:23.948Z,9.07
2018-08-18T02:18:07.350Z,9.33
2018-08-18T02:22:50.891Z,8.97
2018-08-18T02:27:34.239Z,10.37
2018-08-18T02:32:28.618Z,10.47
2018-08-18T02:37:11.902Z,9.83
2018-08-18T02:42:02.943Z,9.57
2018-08-18T02:46:46.366Z,9.97
2018-08-18T02:51:31.645Z,10.87
2018-08-18T02:56:14.941Z,11.20
2018-08-18T03:00:58.390Z,10.87
2018-08-18T03:05:41.910Z,11.37
2018-08-18T03:10:26.732Z,11.80
2018-08-18T03:15:10.180Z,12.63
2018-08-18T03:19:53.514Z,11.97
2018-08-18T03:24:36.807Z,11.70
2018-08-18T03:29:21.594Z,11.47
2018-08-18T03:34:06.035Z,12.00
2018-08-18T03:38:49.541Z,12.67
2018-08-18T03:43:33.073Z,11.20
2018-08-18T03:48:16.410Z,11.67
2018-08-18T03:52:59.866Z,11.47
2018-08-18T03:57:47.323Z,11.30
2018-08-18T04:02:30.792Z,12.03
2018-08-18T04:07:14.236Z,10.90
2018-08-18T04:12:01.200Z,11.17
2018-08-18T04:16:49.663Z,11.37
2018-08-18T04:21:33.779Z,10.87
2018-08-18T04:26:17.053Z,10.67
2018-08-18T04:31:00.518Z,10.63
2018-08-18T04:35:48.525Z,10.73
2018-08-18T04:40:31.866Z,10.47
2018-08-18T04:45:17.436Z,10.30
2018-08-18T04:50:00.816Z,10.20
2018-08-18T04:54:45.412Z,10.00
2018-08-18T04:59:28.831Z,9.63
2018-08-18T05:04:15.954Z,9.40
2018-08-18T05:09:01.599Z,8.90
2018-08-18T05:13:45.030Z,9.93
2018-08-18T05:18:28.474Z,9.70
2018-08-18T05:23:22.683Z,9.60
2018-08-18T05:28:06.180Z,8.97
2018-08-18T05:32:49.877Z,9.67
2018-08-18T05:37:33.257Z,9.90
2018-08-18T05:42:16.963Z,9.00
2018-08-18T05:47:00.280Z,9.23
2018-08-18T05:51:47.416Z,9.17
2018-08-18T05:56:30.745Z,8.83
2018-08-18T06:01:25.079Z,9.13
2018-08-18T06:06:08.533Z,7.93
2018-08-18T06:10:51.867Z,8.00
2018-08-18T06:15:35.176Z,8.10
2018-08-18T06:20:18.622Z,8.30
2018-08-18T06:25:01.932Z,7.77
2018-08-18T06:29:45.307Z,7.60
2018-08-18T06:34:31.545Z,7.57
2018-08-18T06:39:14.884Z,7.90
2018-08-18T06:43:58.392Z,7.50
2018-08-18T06:48:41.923Z,6.97
2018-08-18T06:53:28.726Z,6.30
2018-08-18T06:58:12.354Z,6.40
2018-08-18T07:02:55.827Z,6.27
2018-08-18T07:07:39.183Z,6.17
2018-08-18T07:12:22.738Z,5.53
2018-08-18T07:17:06.252Z,6.30
2018-08-18T07:21:49.809Z,5.63
2018-08-18T07:26:33.390Z,5.93
2018-08-18T07:31:19.940Z,5.93
2018-08-18T07:36:03.344Z,5.40
2018-08-18T07:40:48.902Z,5.10
2018-08-18T07:45:33.027Z,5.17
2018-08-18T07:50:16.389Z,4.97
2018-08-18T07:54:59.840Z,5.20
2018-08-18T07:59:43.301Z,4.50
2018-08-18T08:04:27.718Z,4.80
2018-08-18T08:09:12.206Z,4.95
2018-08-18T08:13:55.709Z,4.47
2018-08-18T08:18:39.131Z,4.33
2018-08-18T08:23:22.593Z,4.67
2018-08-18T08:28:06.750Z,4.60
2018-08-18T08:33:01.058Z,4.40
2018-08-18T08:37:45.355Z,4.05
2018-08-18T08:42:29.153Z,4.92
2018-08-18T08:47:18.388Z,5.17
2018-08-18T08:52:03.895Z,4.55
2018-08-18T08:56:48.100Z,4.47
2018-08-18T09:01:31.506Z,5.42
2018-08-18T09:06:15.119Z,6.10
2018-08-18T09:10:59.146Z,8.33
2018-08-18T09:15:42.619Z,4.67
2018-08-18T09:20:27.394Z,4.55
2018-08-18T09:25:15.832Z,5.05
2018-08-18T09:29:59.200Z,7.62
2018-08-18T09:34:57.277Z,5.58
2018-08-18T09:39:40.750Z,3.52
2018-08-18T09:44:29.993Z,3.50
2018-08-18T09:49:13.445Z,3.45
2018-08-18T09:53:57.085Z,3.55
2018-08-18T09:58:40.455Z,3.00
2018-08-18T10:03:24.053Z,3.27
2018-08-18T10:08:08.332Z,3.00
2018-08-18T10:12:51.940Z,3.92
2018-08-18T10:17:35.306Z,3.72
2018-08-18T10:22:18.973Z,3.20
2018-08-18T10:27:05.291Z,3.05
2018-08-18T10:31:56.108Z,2.85
2018-08-18T10:36:45.376Z,3.05
2018-08-18T10:41:28.965Z,3.72
2018-08-18T10:46:12.331Z,3.20
2018-08-18T10:51:17.656Z,3.02
2018-08-18T10:56:01.114Z,3.30
2018-08-18T11:00:44.849Z,3.00
2018-08-18T11:05:29.346Z,3.67
2018-08-18T11:10:12.822Z,3.37
2018-08-18T11:15:01.486Z,3.45
2018-08-18T11:19:45.944Z,3.12
2018-08-18T11:24:29.407Z,3.22
2018-08-18T11:29:18.963Z,3.33
2018-08-18T11:34:02.620Z,2.92
2018-08-18T11:38:46.131Z,3.00
2018-08-18T11:43:32.260Z,2.87
2018-08-18T11:48:25.989Z,2.50
2018-08-18T11:53:09.356Z,2.87
2018-08-18T11:57:54.527Z,3.20
2018-08-18T12:02:38.131Z,3.02
2018-08-18T12:07:21.577Z,3.10
2018-08-18T12:12:05.026Z,3.10
2018-08-18T12:16:48.380Z,2.80
2018-08-18T12:21:36.919Z,2.50
2018-08-18T12:26:22.681Z,2.62
2018-08-18T12:31:12.589Z,2.33
2018-08-18T12:35:56.105Z,2.45
2018-08-18T12:40:39.573Z,2.52
2018-08-18T12:45:23.184Z,2.10
2018-08-18T12:50:06.598Z,2.08
2018-08-18T12:54:50.090Z,2.22
2018-08-18T12:59:33.638Z,2.60
2018-08-18T13:04:19.083Z,2.17
2018-08-18T13:09:02.985Z,2.30
2018-08-18T13:13:47.006Z,2.17
2018-08-18T13:18:34.917Z,2.00
2018-08-18T13:23:22.661Z,2.02
2018-08-18T13:28:06.978Z,2.15
2018-08-18T13:32:51.878Z,1.90
2018-08-18T13:37:35.844Z,1.70
2018-08-18T13:42:26.991Z,1.95
2018-08-18T13:47:10.295Z,2.30
2018-08-18T13:51:53.734Z,2.65
2018-08-18T13:56:37.375Z,2.20
2018-08-18T14:01:42.623Z,2.45
2018-08-18T14:06:26.255Z,2.08
2018-08-18T14:11:09.948Z,2.00
2018-08-18T14:15:59.688Z,2.02
2018-08-18T14:20:57.376Z,2.05
2018-08-18T14:25:41.139Z,2.22
2018-08-18T14:30:24.577Z,2.47
2018-08-18T14:35:08.123Z,2.33
2018-08-18T14:39:52.403Z,2.65
2018-08-18T14:44:36.612Z,2.20
2018-08-18T14:49:20.015Z,2.52
2018-08-18T14:54:03.804Z,2.27
2018-08-18T14:58:47.959Z,2.85
2018-08-18T15:03:31.900Z,2.50
2018-08-18T15:08:15.394Z,2.95
2018-08-18T15:13:00.788Z,2.95
2018-08-18T15:17:44.226Z,3.40
2018-08-18T15:22:27.988Z,3.00
2018-08-18T15:27:11.421Z,3.67
2018-08-18T15:31:56.625Z,3.17
2018-08-18T15:36:40.126Z,3.22
2018-08-18T15:41:25.297Z,6.12
2018-08-18T15:46:08.684Z,3.83
2018-08-18T15:50:52.098Z,2.90
2018-08-18T15:55:35.655Z,3.90
2018-08-18T16:00:31.169Z,3.25
2018-08-18T16:05:14.660Z,3.20
2018-08-18T16:09:59.135Z,3.33
2018-08-18T16:14:42.739Z,2.87
2018-08-18T16:19:26.400Z,3.22
2018-08-18T16:24:14.180Z,3.08
2018-08-18T16:28:57.564Z,4.28
2018-08-18T16:33:42.078Z,4.20
2018-08-18T16:38:25.545Z,3.72
2018-08-18T16:43:13.959Z,4.00
2018-08-18T16:47:57.450Z,3.00
2018-08-18T16:52:41.283Z,2.95
2018-08-18T16:57:24.809Z,3.98
2018-08-18T17:02:21.610Z,4.37
2018-08-18T17:07:15.526Z,3.70
2018-08-18T17:12:11.787Z,3.98
2018-08-18T17:16:55.332Z,3.22
2018-08-18T17:21:39.960Z,3.52
2018-08-18T17:26:23.455Z,3.80
2018-08-18T17:31:07.430Z,3.47
2018-08-18T17:35:51.520Z,3.87
2018-08-18T17:40:35.989Z,4.53
2018-08-18T17:46:52.093Z,4.07
2018-08-18T17:51:36.429Z,3.60
2018-08-18T17:56:19.875Z,4.60
2018-08-18T18:01:05.944Z,3.70
2018-08-18T18:05:58.497Z,4.47
2018-08-18T18:10:42.389Z,3.90
2018-08-18T18:15:39.436Z,3.87
2018-08-18T18:20:24.226Z,3.70
2018-08-18T18:25:15.483Z,3.93
2018-08-18T18:30:32.825Z,4.13
2018-08-18T18:35:18.027Z,3.97
2018-08-18T18:40:14.508Z,4.80
2018-08-18T18:44:59.049Z,4.97
2018-08-18T18:49:45.970Z,4.20
2018-08-18T18:54:29.331Z,3.60
2018-08-18T18:59:12.894Z,3.30
2018-08-18T19:03:56.450Z,3.37
2018-08-18T19:09:03.620Z,3.00
2018-08-18T19:13:47.101Z,2.67
2018-08-18T19:18:30.723Z,3.30
2018-08-18T19:23:17.735Z,2.83
2018-08-18T19:28:01.842Z,2.90
2018-08-18T19:32:46.382Z,2.73
2018-08-18T19:37:31.088Z,2.87
2018-08-18T19:42:16.110Z,2.67
2018-08-18T19:46:59.703Z,3.47
2018-08-18T19:51:43.373Z,2.97
2018-08-18T19:56:26.861Z,3.10
2018-08-18T20:01:10.287Z,3.30
2018-08-18T20:05:53.907Z,3.77
2018-08-18T20:10:48.492Z,3.53
2018-08-18T20:15:32.147Z,3.37
2018-08-18T20:20:24.271Z,3.60
2018-08-18T20:25:07.884Z,3.50
2018-08-18T20:29:52.599Z,3.50
2018-08-18T20:34:36.584Z,3.40
2018-08-18T20:39:20.986Z,3.70
2018-08-18T20:44:04.533Z,3.50
2018-08-18T20:48:48.139Z,3.50
2018-08-18T20:53:31.581Z,4.03
2018-08-18T20:58:14.943Z,4.87
2018-08-18T21:02:58.627Z,3.73
2018-08-18T21:07:42.048Z,4.80
2018-08-18T21:12:35.879Z,3.70
2018-08-18T21:17:19.278Z,4.17
2018-08-18T21:22:04.588Z,3.80
2018-08-18T21:26:48.204Z,4.20
2018-08-18T21:31:33.812Z,4.03
2018-08-18T21:36:17.442Z,4.00
2018-08-18T21:41:00.938Z,4.37
2018-08-18T21:45:44.509Z,4.57
2018-08-18T21:50:28.029Z,4.27
2018-08-18T21:55:11.481Z,4.07
2018-08-18T21:59:59.189Z,6.67
2018-08-18T22:04:42.772Z,4.50
2018-08-18T22:09:29.516Z,4.67
2018-08-18T22:14:15.471Z,4.43
2018-08-18T22:19:03.508Z,4.27
2018-08-18T22:23:46.997Z,5.37
2018-08-18T22:28:30.420Z,5.60
2018-08-18T22:33:13.918Z,6.10
2018-08-18T22:37:57.291Z,5.70
2018-08-18T22:42:41.068Z,5.40
2018-08-18T22:47:24.664Z,6.10
2018-08-18T22:52:08.062Z,5.40
2018-08-18T22:56:56.870Z,5.97
2018-08-18T23:01:40.289Z,5.73
2018-08-18T23:06:23.597Z,6.07
2018-08-18T23:11:08.061Z,5.80
2018-08-18T23:15:51.500Z,5.87
2018-08-18T23:20:35.064Z,5.47
2018-08-18T23:25:18.476Z,5.20
2018-08-18T23:30:02.882Z,5.40
2018-08-18T23:34:46.076Z,4.97
2018-08-18T23:39:29.642Z,5.10
2018-08-18T23:44:12.853Z,4.20
2018-08-18T23:48:56.472Z,4.30
2018-08-18T23:53:39.879Z,4.77
2018-08-18T23:58:23.520Z,5.10
